createdAt,value
2018-06-14T00:01:37.978Z,15.60
2018-06-14T00:04:41.658Z,15.60
2018-06-14T00:08:48.610Z,15.60
2018-06-14T00:11:52.240Z,15.60
2018-06-14T00:14:55.847Z,15.60
2018-06-14T00:17:59.477Z,15.50
2018-06-14T00:21:03.245Z,15.50
2018-06-14T00:24:06.885Z,15.50
2018-06-14T00:27:10.482Z,15.50
2018-06-14T00:30:14.119Z,15.50
2018-06-14T00:33:17.732Z,15.50
2018-06-14T00:36:21.363Z,15.50
2018-06-14T00:39:24.965Z,15.50
2018-06-14T00:42:28.598Z,15.50
2018-06-14T00:45:32.202Z,15.50
2018-06-14T00:48:36.030Z,15.50
2018-06-14T00:51:39.614Z,15.50
2018-06-14T00:54:43.246Z,15.50
2018-06-14T00:57:46.859Z,15.50
2018-06-14T01:00:50.493Z,15.50
2018-06-14T01:03:54.130Z,15.50
2018-06-14T01:06:57.770Z,15.50
2018-06-14T01:10:01.383Z,15.40
2018-06-14T01:13:05.247Z,15.30
2018-06-14T01:20:15.749Z,15.40
2018-06-14T01:23:19.354Z,15.40
2018-06-14T01:26:23.000Z,15.30
2018-06-14T01:29:26.999Z,15.30
2018-06-14T01:32:30.713Z,15.30
2018-06-14T01:35:34.713Z,15.30
2018-06-14T01:38:38.338Z,15.20
2018-06-14T01:41:42.139Z,15.20
2018-06-14T01:44:45.717Z,15.10
2018-06-14T01:47:49.382Z,15.10
2018-06-14T01:50:52.973Z,15.10
2018-06-14T01:53:56.641Z,15.10
2018-06-14T01:57:00.253Z,15.10
2018-06-14T02:00:04.019Z,15.10
2018-06-14T02:03:07.641Z,15.00
2018-06-14T02:06:11.353Z,15.00
2018-06-14T02:09:15.106Z,15.00
2018-06-14T02:12:18.685Z,15.00
2018-06-14T02:15:22.327Z,15.00
2018-06-14T02:18:26.218Z,14.80
2018-06-14T02:21:30.134Z,14.70
2018-06-14T02:24:33.758Z,14.60
2018-06-14T02:27:37.389Z,14.50
2018-06-14T02:30:41.036Z,14.40
2018-06-14T02:36:48.028Z,14.10
2018-06-14T02:42:54.991Z,13.90
2018-06-14T02:45:58.621Z,13.90
2018-06-14T02:49:02.340Z,13.90
2018-06-14T02:52:05.934Z,13.80
2018-06-14T02:58:12.895Z,13.90
2018-06-14T03:01:16.596Z,13.90
2018-06-14T03:04:20.290Z,13.80
2018-06-14T03:10:50.782Z,13.80
2018-06-14T03:13:54.411Z,13.80
2018-06-14T03:16:58.044Z,13.80
2018-06-14T03:20:01.666Z,13.80
2018-06-14T03:23:05.367Z,13.90
2018-06-14T03:26:09.257Z,14.00
2018-06-14T03:29:13.077Z,14.50
2018-06-14T03:32:16.719Z,15.00
2018-06-14T03:38:25.094Z,16.20
2018-06-14T03:41:28.759Z,16.50
2018-06-14T03:47:36.203Z,16.40
2018-06-14T03:50:39.869Z,16.00
2018-06-14T03:53:43.468Z,15.50
2018-06-14T03:56:47.083Z,15.30
2018-06-14T04:02:54.052Z,15.00
2018-06-14T04:05:57.678Z,15.00
2018-06-14T04:09:01.303Z,15.10
2018-06-14T04:12:05.223Z,15.20
2018-06-14T04:15:08.846Z,15.40
2018-06-14T04:18:12.560Z,15.70
2018-06-14T04:21:16.162Z,15.60
2018-06-14T04:24:19.805Z,15.80
2018-06-14T04:27:23.464Z,15.50
2018-06-14T04:30:27.457Z,15.40
2018-06-14T04:33:31.073Z,15.30
2018-06-14T04:36:34.761Z,15.20
2018-06-14T04:39:38.400Z,15.10
2018-06-14T04:42:42.031Z,15.00
2018-06-14T04:45:45.684Z,14.90
2018-06-14T04:48:49.468Z,14.90
2018-06-14T04:51:53.232Z,14.90
2018-06-14T04:54:56.861Z,14.90
2018-06-14T04:58:00.658Z,15.00
2018-06-14T05:01:04.944Z,15.10
2018-06-14T05:04:08.597Z,15.10
2018-06-14T05:07:12.238Z,15.20
2018-06-14T05:10:16.221Z,15.10
2018-06-14T05:13:19.941Z,15.10
2018-06-14T05:16:23.581Z,15.10
2018-06-14T05:19:58.240Z,15.20
2018-06-14T05:23:02.162Z,15.30
2018-06-14T05:26:05.806Z,15.30
2018-06-14T05:29:09.463Z,15.40
2018-06-14T05:32:13.111Z,15.50
2018-06-14T05:35:16.722Z,15.60
2018-06-14T05:39:49.627Z,15.60
2018-06-14T05:42:53.261Z,15.60
2018-06-14T05:45:56.887Z,15.80
2018-06-14T05:49:00.521Z,15.90
2018-06-14T05:55:07.575Z,16.30
2018-06-14T05:58:11.222Z,16.40
2018-06-14T06:01:14.871Z,16.50
2018-06-14T06:04:18.519Z,16.70
2018-06-14T06:07:22.141Z,16.90
2018-06-14T06:10:25.778Z,17.10
2018-06-14T06:13:29.449Z,17.00
2018-06-14T06:19:36.478Z,17.20
2018-06-14T06:22:40.257Z,17.30
2018-06-14T06:25:43.862Z,17.40
2018-06-14T06:28:47.520Z,18.30
2018-06-14T06:31:51.138Z,19.20
2018-06-14T06:34:54.792Z,20.20
2018-06-14T06:37:58.410Z,20.20
2018-06-14T06:41:02.081Z,20.00
2018-06-14T06:47:09.063Z,19.30
2018-06-14T06:50:12.693Z,19.20
2018-06-14T06:53:16.444Z,19.10
2018-06-14T06:56:20.084Z,19.50
2018-06-14T06:59:23.703Z,20.10
2018-06-14T07:02:27.384Z,19.50
2018-06-14T07:05:31.123Z,19.60
2018-06-14T07:08:34.677Z,19.70
2018-06-14T07:14:41.959Z,20.90
2018-06-14T07:17:45.623Z,21.50
2018-06-14T07:20:49.243Z,22.20
2018-06-14T07:23:52.878Z,21.70
2018-06-14T07:26:56.477Z,20.40
2018-06-14T07:30:00.110Z,19.60
2018-06-14T07:36:07.423Z,18.50
2018-06-14T07:39:12.342Z,18.30
2018-06-14T07:42:15.952Z,18.70
2018-06-14T07:48:23.046Z,20.50
2018-06-14T07:51:26.710Z,21.10
2018-06-14T07:54:30.365Z,20.80
2018-06-14T07:57:34.038Z,20.00
2018-06-14T08:00:37.691Z,19.40
2018-06-14T08:03:41.357Z,19.10
2018-06-14T08:06:44.973Z,19.10
2018-06-14T08:09:48.616Z,20.20
2018-06-14T08:12:52.273Z,20.90
2018-06-14T08:15:55.948Z,20.50
2018-06-14T08:18:59.626Z,20.00
2018-06-14T08:22:03.247Z,20.00
2018-06-14T08:25:06.904Z,20.10
2018-06-14T08:28:10.521Z,19.40
2018-06-14T08:31:14.183Z,19.30
2018-06-14T08:34:17.795Z,19.10
2018-06-14T08:37:25.821Z,19.60
2018-06-14T08:40:29.462Z,20.40
2018-06-14T08:43:33.619Z,20.90
2018-06-14T08:46:37.269Z,21.30
2018-06-14T08:49:41.726Z,21.40
2018-06-14T08:52:45.344Z,21.80
2018-06-14T08:58:52.439Z,21.50
2018-06-14T09:01:56.137Z,21.50
2018-06-14T09:04:59.738Z,21.30
2018-06-14T09:08:03.354Z,21.40
2018-06-14T09:11:07.022Z,20.80
2018-06-14T09:14:10.732Z,20.70
2018-06-14T09:17:14.299Z,20.80
2018-06-14T09:20:17.975Z,21.10
2018-06-14T09:23:21.613Z,21.30
2018-06-14T09:26:25.565Z,21.40
2018-06-14T09:29:29.162Z,21.60
2018-06-14T09:32:32.871Z,21.00
2018-06-14T09:35:36.471Z,20.90
2018-06-14T09:38:40.175Z,20.80
2018-06-14T09:41:43.879Z,21.20
2018-06-14T09:44:47.496Z,21.60
2018-06-14T09:47:51.253Z,21.90
2018-06-14T09:50:54.907Z,22.10
2018-06-14T09:53:58.799Z,21.40
2018-06-14T09:57:02.522Z,21.30
2018-06-14T10:00:06.107Z,20.60
2018-06-14T10:06:13.387Z,21.30
2018-06-14T10:09:16.993Z,21.20
2018-06-14T10:12:20.624Z,21.50
2018-06-14T10:18:27.610Z,22.10
2018-06-14T10:21:31.602Z,21.50
2018-06-14T10:24:35.223Z,21.20
2018-06-14T10:30:43.252Z,20.90
2018-06-14T10:33:46.886Z,21.00
2018-06-14T10:36:50.501Z,21.40
2018-06-14T10:39:54.358Z,21.60
2018-06-14T10:43:02.479Z,21.80
2018-06-14T10:46:06.111Z,21.80
2018-06-14T10:49:09.772Z,21.50
2018-06-14T10:52:13.459Z,21.20
2018-06-14T10:55:17.185Z,21.60
2018-06-14T10:58:20.782Z,22.00
2018-06-14T11:01:24.472Z,21.90
2018-06-14T11:04:28.111Z,22.10
2018-06-14T11:07:31.827Z,21.80
2018-06-14T11:10:35.466Z,22.00
2018-06-14T11:13:39.082Z,21.80
2018-06-14T11:16:42.711Z,21.60
2018-06-14T11:19:46.336Z,21.00
2018-06-14T11:22:50.084Z,21.10
2018-06-14T11:25:54.778Z,21.40
2018-06-14T11:28:58.603Z,21.20
2018-06-14T11:32:02.267Z,21.60
2018-06-14T11:35:05.987Z,21.20
2018-06-14T11:38:09.623Z,21.10
2018-06-14T11:41:13.356Z,21.50
2018-06-14T11:44:17.059Z,21.80
2018-06-14T11:47:20.770Z,21.90
2018-06-14T11:53:27.730Z,21.20
2018-06-14T11:56:31.331Z,21.30
2018-06-14T11:59:35.085Z,21.60
2018-06-14T12:02:38.687Z,21.70
2018-06-14T12:05:42.350Z,21.50
2018-06-14T12:08:46.004Z,21.30
2018-06-14T12:11:49.803Z,21.30
2018-06-14T12:17:56.516Z,21.40
2018-06-14T12:21:00.204Z,21.80
2018-06-14T12:24:03.945Z,21.20
2018-06-14T12:27:07.579Z,21.30
2018-06-14T12:33:14.558Z,21.70
2018-06-14T12:36:18.271Z,21.70
2018-06-14T12:39:21.927Z,21.90
2018-06-14T12:42:25.579Z,22.10
2018-06-14T12:45:29.338Z,22.30
2018-06-14T12:48:32.982Z,22.50
2018-06-14T12:51:36.870Z,22.40
2018-06-14T12:54:40.817Z,22.30
2018-06-14T12:57:44.409Z,22.50
2018-06-14T13:00:48.040Z,22.50
2018-06-14T13:03:51.724Z,22.50
2018-06-14T13:06:55.369Z,22.60
2018-06-14T13:09:58.986Z,22.70
2018-06-14T13:13:03.147Z,22.60
2018-06-14T13:19:10.215Z,22.60
2018-06-14T13:22:13.861Z,22.50
2018-06-14T13:25:20.348Z,22.30
2018-06-14T13:28:24.022Z,22.30
2018-06-14T13:31:27.664Z,21.80
2018-06-14T13:34:31.474Z,21.90
2018-06-14T13:37:35.231Z,22.00
2018-06-14T13:40:38.846Z,21.90
2018-06-14T13:43:42.497Z,22.30
2018-06-14T13:46:46.249Z,22.50
2018-06-14T13:49:49.871Z,22.60
2018-06-14T13:52:53.475Z,22.60
2018-06-14T13:55:57.155Z,21.90
2018-06-14T13:59:00.762Z,21.90
2018-06-14T14:02:04.421Z,22.20
2018-06-14T14:05:08.073Z,22.40
2018-06-14T14:08:11.690Z,22.60
2018-06-14T14:11:15.409Z,22.10
2018-06-14T14:14:19.066Z,22.00
2018-06-14T14:17:22.702Z,22.00
2018-06-14T14:20:26.342Z,21.50
2018-06-14T14:23:29.951Z,21.50
2018-06-14T14:26:33.598Z,21.70
2018-06-14T14:29:37.539Z,21.50
2018-06-14T14:32:41.430Z,21.60
2018-06-14T14:35:45.054Z,21.70
2018-06-14T14:38:48.717Z,22.10
2018-06-14T14:41:52.338Z,22.30
2018-06-14T14:44:56.007Z,22.40
2018-06-14T14:47:59.615Z,22.30
2018-06-14T14:51:03.314Z,22.10
2018-06-14T14:54:07.016Z,22.00
2018-06-14T14:57:10.683Z,22.00
2018-06-14T15:00:14.845Z,21.90
2018-06-14T15:03:18.501Z,21.90
2018-06-14T15:06:22.154Z,21.90
2018-06-14T15:09:25.947Z,21.90
2018-06-14T15:12:29.565Z,22.10
2018-06-14T15:15:33.217Z,22.30
2018-06-14T15:18:36.952Z,22.50
2018-06-14T15:21:40.611Z,22.80
2018-06-14T15:24:44.257Z,22.70
2018-06-14T15:27:47.903Z,22.80
2018-06-14T15:30:51.510Z,22.70
2018-06-14T15:33:55.223Z,22.70
2018-06-14T15:36:58.904Z,22.50
2018-06-14T15:40:02.608Z,22.50
2018-06-14T15:43:06.252Z,22.40
2018-06-14T15:46:09.905Z,22.30
2018-06-14T15:49:13.527Z,22.50
2018-06-14T15:52:17.185Z,22.50
2018-06-14T15:58:30.901Z,22.60
2018-06-14T16:04:37.828Z,22.70
2018-06-14T16:07:41.544Z,22.60
2018-06-14T16:11:48.325Z,22.60
2018-06-14T16:14:52.051Z,22.60
2018-06-14T16:24:02.436Z,22.60
2018-06-14T16:27:06.037Z,22.70
2018-06-14T16:30:09.715Z,22.70
2018-06-14T16:33:13.437Z,22.70
2018-06-14T16:36:17.039Z,22.80
2018-06-14T16:42:24.055Z,22.90
2018-06-14T16:45:27.743Z,22.90
2018-06-14T16:54:38.236Z,22.90
2018-06-14T16:57:41.886Z,23.00
2018-06-14T17:00:45.634Z,22.80
2018-06-14T17:06:52.646Z,22.80
2018-06-14T17:13:00.031Z,22.80
2018-06-14T17:16:03.682Z,22.80
2018-06-14T17:19:07.267Z,22.70
2018-06-14T17:22:10.934Z,22.70
2018-06-14T17:25:14.606Z,22.70
2018-06-14T17:28:24.663Z,22.70
2018-06-14T17:31:28.420Z,22.70
2018-06-14T17:34:32.004Z,22.70
2018-06-14T17:37:35.635Z,22.70
2018-06-14T17:40:39.735Z,22.60
2018-06-14T17:43:43.349Z,22.60
2018-06-14T17:46:47.056Z,22.60
2018-06-14T17:49:50.745Z,22.60
2018-06-14T17:52:54.347Z,22.50
2018-06-14T17:55:58.097Z,22.50
2018-06-14T17:59:01.653Z,22.30
2018-06-14T18:05:09.305Z,22.20
2018-06-14T18:11:15.919Z,22.00
2018-06-14T18:14:19.560Z,21.90
2018-06-14T18:17:23.231Z,21.80
2018-06-14T18:20:27.451Z,21.70
2018-06-14T18:23:31.148Z,21.70
2018-06-14T18:26:34.987Z,21.60
2018-06-14T18:29:38.630Z,21.50
2018-06-14T18:32:42.271Z,21.40
2018-06-14T18:35:46.107Z,21.40
2018-06-14T18:39:52.882Z,21.30
2018-06-14T18:42:56.691Z,21.20
2018-06-14T18:49:04.151Z,20.90
2018-06-14T18:52:07.962Z,20.80
2018-06-14T18:55:11.668Z,20.60
2018-06-14T18:58:15.804Z,20.50
2018-06-14T19:01:20.331Z,20.40
2018-06-14T19:04:24.263Z,20.30
2018-06-14T19:10:32.900Z,20.00
2018-06-14T19:16:39.919Z,19.70
2018-06-14T19:19:43.758Z,19.50
2018-06-14T19:22:47.752Z,19.40
2018-06-14T19:25:51.438Z,19.30
2018-06-14T19:28:55.902Z,19.20
2018-06-14T19:32:00.509Z,19.10
2018-06-14T19:35:04.167Z,19.10
2018-06-14T19:38:07.784Z,19.10
2018-06-14T19:41:11.425Z,19.00
2018-06-14T19:44:15.046Z,19.00
2018-06-14T19:47:18.691Z,19.10
2018-06-14T19:50:22.315Z,19.10
2018-06-14T19:53:25.963Z,19.10
2018-06-14T19:59:32.964Z,18.90
2018-06-14T20:02:36.578Z,18.80
2018-06-14T20:05:40.243Z,18.70
2018-06-14T20:08:43.949Z,18.60
2018-06-14T20:11:47.578Z,18.50
2018-06-14T20:17:54.570Z,18.40
2018-06-14T20:24:01.601Z,18.10
2018-06-14T20:27:05.360Z,18.00
2018-06-14T20:30:09.381Z,18.00
2018-06-14T20:33:13.019Z,17.90
2018-06-14T20:36:16.759Z,17.80
2018-06-14T20:39:20.361Z,17.70
2018-06-14T20:42:24.000Z,17.60
2018-06-14T20:48:30.995Z,17.70
2018-06-14T20:54:37.994Z,17.90
2018-06-14T21:00:45.458Z,17.90
2018-06-14T21:03:49.089Z,17.80
2018-06-14T21:06:52.809Z,17.70
2018-06-14T21:09:56.472Z,17.60
2018-06-14T21:13:00.117Z,17.50
2018-06-14T21:19:07.160Z,17.50
2018-06-14T21:22:10.843Z,17.50
2018-06-14T21:25:14.551Z,17.40
2018-06-14T21:28:18.180Z,17.40
2018-06-14T21:31:21.822Z,17.30
2018-06-14T21:34:25.456Z,17.20
2018-06-14T21:37:29.199Z,17.20
2018-06-14T21:40:32.834Z,17.10
2018-06-14T21:46:40.431Z,17.00
2018-06-14T21:49:44.042Z,16.90
2018-06-14T21:52:47.650Z,17.10
2018-06-14T21:58:54.675Z,17.20
2018-06-14T22:01:58.573Z,17.20
2018-06-14T22:11:09.002Z,17.00
2018-06-14T22:14:12.668Z,16.90
2018-06-14T22:20:19.663Z,16.90
2018-06-14T22:23:23.264Z,16.90
2018-06-14T22:29:30.470Z,16.90
2018-06-14T22:32:34.372Z,16.90
2018-06-14T22:38:41.374Z,16.90
2018-06-14T22:44:48.747Z,16.90
2018-06-14T22:47:52.341Z,16.90
2018-06-14T22:51:07.663Z,16.90
2018-06-14T22:54:11.242Z,17.00
2018-06-14T22:57:14.968Z,16.90
2018-06-14T23:01:29.772Z,16.80
2018-06-14T23:04:33.548Z,16.80
2018-06-14T23:07:37.196Z,16.70
2018-06-14T23:10:52.475Z,16.70
2018-06-14T23:13:56.094Z,16.70
2018-06-14T23:16:59.728Z,16.70
2018-06-14T23:23:07.217Z,16.70
2018-06-14T23:26:10.853Z,16.70
2018-06-14T23:29:14.477Z,16.70
2018-06-14T23:32:18.095Z,16.70
2018-06-14T23:35:21.722Z,16.60
2018-06-14T23:38:25.329Z,16.60
2018-06-14T23:41:28.958Z,16.60
2018-06-14T23:44:32.583Z,16.70
2018-06-14T23:47:36.213Z,16.70
2018-06-14T23:50:39.841Z,16.70
2018-06-14T23:53:43.464Z,16.70
2018-06-14T23:59:51.043Z,16.70
